Portada
METAR-TAF:

METAR-TAF

Aeroports :

Jamshedpur, Índia

latitud: 22-48-49N, longitud: 086-10-05E, altitud: 146 m

Observació

L'informe es va fer fa 23 minuts, a les 08:00 UTC
Vent 3 kt del Oest
Temperatura 36°C
Humitat 42%
Pressió 1003 hPa
Visibilitat: 5000 m
Núvols disperses a una alçada de 2000 ft
calitja

METAR: VEJS 060800Z 27003KT 5000 HZ SCT020 36/21 Q1003

Hora: 13:53 (08:23 UTC)

Pronòstic

L'informe es va fer fa 3 hores i 23 minuts, a les 05:00 UTC
Pronòstic vàlid del 06 a les 06 UTC al 06 a les 15 UTC
Vent 5 kt del Oest/Nord-Oest
Visibilitat: 5000 m
Núvols disperses a una alçada de 1800 ft
Núvols disperses a una alçada de 2500 ft
pluja, calitja
Evolucionant progressivament
l' 06 a les 13 UTC al 06 a les 14 UTC
Vent kt del Nord
Visibilitat: 3500 m
Núvols disperses a una alçada de 10000 ft
calitja

TAF: VEJS 060500Z 0606/0615 30005KT 5000 -RA HZ SCT018 SCT025 BECMG 0613/0614 00000KT 3500 HZ SCT100

Observacions i pronòstics meteorològics de més de 4000 aeroports (METAR i TAF).

Les estacions disponibles són els punts grocs i vermells al mapa.

Posi el ratolí al punt desitjat per veure el nom de l'estació.

Feu clic per veure les observacions i els pronòstics meteorològics.

Per canviar el mapa: feu clic els botons verds amb una creu de color negre per apropar; al botó verd amb un guió per allunyar la imatge; o en les fletxes verdes per a mapes adjacents.


METAR-TAF: